sensor_id;sensor_type;location;lat;lon;timestamp;P1;durP1;ratioP1;P2;durP2;ratioP2
5022;SDS011;2530;47.990;7.866;2022-10-16T00:01:55;2.60;;;1.00;;
5022;SDS011;2530;47.990;7.866;2022-10-16T00:04:20;2.45;;;1.15;;
5022;SDS011;2530;47.990;7.866;2022-10-16T00:06:46;1.50;;;1.20;;
5022;SDS011;2530;47.990;7.866;2022-10-16T00:09:11;3.47;;;1.30;;
5022;SDS011;2530;47.990;7.866;2022-10-16T00:11:37;2.78;;;1.00;;
5022;SDS011;2530;47.990;7.866;2022-10-16T00:14:06;1.70;;;1.00;;
5022;SDS011;2530;47.990;7.866;2022-10-16T00:16:35;1.70;;;1.10;;
5022;SDS011;2530;47.990;7.866;2022-10-16T00:19:01;0.90;;;0.82;;
5022;SDS011;2530;47.990;7.866;2022-10-16T00:21:28;1.70;;;1.10;;
5022;SDS011;2530;47.990;7.866;2022-10-16T00:23:56;3.45;;;0.90;;
5022;SDS011;2530;47.990;7.866;2022-10-16T00:26:24;2.30;;;1.30;;
5022;SDS011;2530;47.990;7.866;2022-10-16T00:28:51;3.63;;;1.00;;
5022;SDS011;2530;47.990;7.866;2022-10-16T00:31:17;2.20;;;0.90;;
5022;SDS011;2530;47.990;7.866;2022-10-16T00:33:45;1.50;;;1.00;;
5022;SDS011;2530;47.990;7.866;2022-10-16T00:36:12;1.37;;;0.73;;
5022;SDS011;2530;47.990;7.866;2022-10-16T00:38:39;2.60;;;1.20;;
5022;SDS011;2530;47.990;7.866;2022-10-16T00:41:06;1.30;;;0.70;;
5022;SDS011;2530;47.990;7.866;2022-10-16T00:43:40;4.00;;;0.80;;
5022;SDS011;2530;47.990;7.866;2022-10-16T00:46:33;2.80;;;1.10;;
5022;SDS011;2530;47.990;7.866;2022-10-16T00:49:04;5.63;;;1.20;;
5022;SDS011;2530;47.990;7.866;2022-10-16T00:51:45;5.75;;;1.10;;
5022;SDS011;2530;47.990;7.866;2022-10-16T00:54:25;2.70;;;0.90;;
5022;SDS011;2530;47.990;7.866;2022-10-16T00:56:54;2.35;;;0.90;;
5022;SDS011;2530;47.990;7.866;2022-10-16T01:02:14;1.20;;;1.10;;
5022;SDS011;2530;47.990;7.866;2022-10-16T01:04:42;2.58;;;1.10;;
5022;SDS011;2530;47.990;7.866;2022-10-16T01:12:49;2.60;;;0.80;;
5022;SDS011;2530;47.990;7.866;2022-10-16T01:15:24;1.65;;;1.20;;
5022;SDS011;2530;47.990;7.866;2022-10-16T01:18:05;1.67;;;0.90;;
5022;SDS011;2530;47.990;7.866;2022-10-16T01:20:42;1.80;;;1.17;;
5022;SDS011;2530;47.990;7.866;2022-10-16T01:23:36;3.20;;;1.00;;
5022;SDS011;2530;47.990;7.866;2022-10-16T01:26:31;1.10;;;0.80;;
5022;SDS011;2530;47.990;7.866;2022-10-16T01:29:14;1.30;;;1.10;;
5022;SDS011;2530;47.990;7.866;2022-10-16T01:31:43;3.38;;;1.30;;
5022;SDS011;2530;47.990;7.866;2022-10-16T01:37:09;2.85;;;1.30;;
5022;SDS011;2530;47.990;7.866;2022-10-16T01:39:40;3.00;;;1.15;;
5022;SDS011;2530;47.990;7.866;2022-10-16T01:42:30;1.35;;;0.90;;
5022;SDS011;2530;47.990;7.866;2022-10-16T01:45:02;2.47;;;0.77;;
5022;SDS011;2530;47.990;7.866;2022-10-16T01:47:32;1.63;;;0.93;;
5022;SDS011;2530;47.990;7.866;2022-10-16T01:50:00;1.40;;;0.70;;
5022;SDS011;2530;47.990;7.866;2022-10-16T01:52:29;1.30;;;1.00;;
5022;SDS011;2530;47.990;7.866;2022-10-16T01:54:57;1.40;;;0.90;;
5022;SDS011;2530;47.990;7.866;2022-10-16T01:57:24;2.30;;;1.20;;
5022;SDS011;2530;47.990;7.866;2022-10-16T01:59:52;2.22;;;1.10;;
5022;SDS011;2530;47.990;7.866;2022-10-16T02:02:21;2.72;;;0.90;;
5022;SDS011;2530;47.990;7.866;2022-10-16T02:04:58;3.10;;;1.20;;
5022;SDS011;2530;47.990;7.866;2022-10-16T02:07:29;2.75;;;1.13;;
5022;SDS011;2530;47.990;7.866;2022-10-16T02:09:55;3.80;;;1.23;;
5022;SDS011;2530;47.990;7.866;2022-10-16T02:12:28;1.10;;;0.90;;
5022;SDS011;2530;47.990;7.866;2022-10-16T02:14:57;2.67;;;0.90;;
5022;SDS011;2530;47.990;7.866;2022-10-16T02:17:23;3.37;;;1.20;;
5022;SDS011;2530;47.990;7.866;2022-10-16T02:19:49;1.75;;;0.90;;
5022;SDS011;2530;47.990;7.866;2022-10-16T02:24:54;2.10;;;1.20;;
5022;SDS011;2530;47.990;7.866;2022-10-16T02:30:02;2.42;;;0.80;;
5022;SDS011;2530;47.990;7.866;2022-10-16T02:32:35;2.78;;;1.00;;
5022;SDS011;2530;47.990;7.866;2022-10-16T02:35:04;3.70;;;1.08;;
5022;SDS011;2530;47.990;7.866;2022-10-16T02:37:31;3.25;;;1.40;;
5022;SDS011;2530;47.990;7.866;2022-10-16T02:39:58;1.77;;;0.98;;
5022;SDS011;2530;47.990;7.866;2022-10-16T02:42:28;1.52;;;0.90;;
5022;SDS011;2530;47.990;7.866;2022-10-16T02:44:57;1.30;;;0.90;;
5022;SDS011;2530;47.990;7.866;2022-10-16T02:47:23;2.67;;;1.13;;
5022;SDS011;2530;47.990;7.866;2022-10-16T02:49:48;2.20;;;1.20;;
5022;SDS011;2530;47.990;7.866;2022-10-16T02:52:14;3.10;;;1.25;;
5022;SDS011;2530;47.990;7.866;2022-10-16T02:54:39;2.37;;;1.00;;
5022;SDS011;2530;47.990;7.866;2022-10-16T02:57:05;1.97;;;1.20;;
5022;SDS011;2530;47.990;7.866;2022-10-16T02:59:31;4.18;;;1.00;;
5022;SDS011;2530;47.990;7.866;2022-10-16T03:01:56;2.88;;;1.20;;
5022;SDS011;2530;47.990;7.866;2022-10-16T03:04:21;3.37;;;0.93;;
5022;SDS011;2530;47.990;7.866;2022-10-16T03:06:47;3.42;;;1.20;;
5022;SDS011;2530;47.990;7.866;2022-10-16T03:09:12;1.00;;;0.80;;
5022;SDS011;2530;47.990;7.866;2022-10-16T03:11:38;3.23;;;1.10;;
5022;SDS011;2530;47.990;7.866;2022-10-16T03:14:04;5.17;;;0.90;;
5022;SDS011;2530;47.990;7.866;2022-10-16T03:16:29;3.90;;;1.10;;
5022;SDS011;2530;47.990;7.866;2022-10-16T03:18:55;1.90;;;1.00;;
5022;SDS011;2530;47.990;7.866;2022-10-16T03:21:21;4.20;;;1.10;;
5022;SDS011;2530;47.990;7.866;2022-10-16T03:23:46;1.83;;;0.87;;
5022;SDS011;2530;47.990;7.866;2022-10-16T03:26:12;3.77;;;1.10;;
5022;SDS011;2530;47.990;7.866;2022-10-16T03:28:37;4.70;;;1.10;;
5022;SDS011;2530;47.990;7.866;2022-10-16T03:31:03;1.87;;;1.20;;
5022;SDS011;2530;47.990;7.866;2022-10-16T03:33:28;2.93;;;1.40;;
5022;SDS011;2530;47.990;7.866;2022-10-16T03:35:54;1.60;;;1.13;;
5022;SDS011;2530;47.990;7.866;2022-10-16T03:38:20;3.22;;;1.13;;
5022;SDS011;2530;47.990;7.866;2022-10-16T03:40:46;3.40;;;1.35;;
5022;SDS011;2530;47.990;7.866;2022-10-16T03:43:12;1.17;;;1.00;;
5022;SDS011;2530;47.990;7.866;2022-10-16T03:45:37;3.25;;;1.48;;
5022;SDS011;2530;47.990;7.866;2022-10-16T03:48:03;4.20;;;1.25;;
5022;SDS011;2530;47.990;7.866;2022-10-16T03:50:29;0.97;;;0.90;;
5022;SDS011;2530;47.990;7.866;2022-10-16T03:52:54;1.70;;;1.10;;
5022;SDS011;2530;47.990;7.866;2022-10-16T03:55:20;1.30;;;1.03;;
5022;SDS011;2530;47.990;7.866;2022-10-16T03:57:46;2.42;;;1.20;;
5022;SDS011;2530;47.990;7.866;2022-10-16T04:00:12;4.45;;;1.60;;
5022;SDS011;2530;47.990;7.866;2022-10-16T04:02:38;4.60;;;1.20;;
5022;SDS011;2530;47.990;7.866;2022-10-16T04:05:03;2.53;;;0.80;;
5022;SDS011;2530;47.990;7.866;2022-10-16T04:07:29;4.50;;;1.33;;
5022;SDS011;2530;47.990;7.866;2022-10-16T04:09:55;3.60;;;1.90;;
5022;SDS011;2530;47.990;7.866;2022-10-16T04:12:22;2.00;;;1.10;;
5022;SDS011;2530;47.990;7.866;2022-10-16T04:14:47;3.30;;;1.50;;
5022;SDS011;2530;47.990;7.866;2022-10-16T04:17:13;2.20;;;1.20;;
5022;SDS011;2530;47.990;7.866;2022-10-16T04:19:38;2.00;;;1.40;;
5022;SDS011;2530;47.990;7.866;2022-10-16T04:22:04;3.45;;;1.20;;
5022;SDS011;2530;47.990;7.866;2022-10-16T04:24:29;2.53;;;1.80;;
5022;SDS011;2530;47.990;7.866;2022-10-16T04:26:55;4.90;;;1.70;;
5022;SDS011;2530;47.990;7.866;2022-10-16T04:29:20;1.80;;;1.40;;
5022;SDS011;2530;47.990;7.866;2022-10-16T04:31:46;1.10;;;1.00;;
5022;SDS011;2530;47.990;7.866;2022-10-16T04:34:12;2.00;;;1.15;;
5022;SDS011;2530;47.990;7.866;2022-10-16T04:36:37;2.60;;;1.30;;
5022;SDS011;2530;47.990;7.866;2022-10-16T04:39:03;4.40;;;1.13;;
5022;SDS011;2530;47.990;7.866;2022-10-16T04:41:28;2.70;;;1.20;;
5022;SDS011;2530;47.990;7.866;2022-10-16T04:43:54;3.00;;;1.20;;
5022;SDS011;2530;47.990;7.866;2022-10-16T04:46:19;4.83;;;1.23;;
5022;SDS011;2530;47.990;7.866;2022-10-16T04:48:45;6.40;;;1.10;;
5022;SDS011;2530;47.990;7.866;2022-10-16T04:51:11;4.30;;;1.65;;
5022;SDS011;2530;47.990;7.866;2022-10-16T04:53:37;2.27;;;1.50;;
5022;SDS011;2530;47.990;7.866;2022-10-16T04:56:02;1.67;;;1.23;;
5022;SDS011;2530;47.990;7.866;2022-10-16T04:58:28;3.80;;;1.60;;
5022;SDS011;2530;47.990;7.866;2022-10-16T05:00:54;3.20;;;1.10;;
5022;SDS011;2530;47.990;7.866;2022-10-16T05:03:19;2.30;;;1.30;;
5022;SDS011;2530;47.990;7.866;2022-10-16T05:05:45;2.30;;;1.40;;
5022;SDS011;2530;47.990;7.866;2022-10-16T05:08:12;3.92;;;1.45;;
5022;SDS011;2530;47.990;7.866;2022-10-16T05:10:38;2.38;;;1.40;;
5022;SDS011;2530;47.990;7.866;2022-10-16T05:13:04;3.03;;;1.70;;
5022;SDS011;2530;47.990;7.866;2022-10-16T05:15:29;4.05;;;1.40;;
5022;SDS011;2530;47.990;7.866;2022-10-16T05:17:55;1.98;;;1.30;;
5022;SDS011;2530;47.990;7.866;2022-10-16T05:20:21;3.20;;;1.30;;
5022;SDS011;2530;47.990;7.866;2022-10-16T05:22:48;1.77;;;1.60;;
5022;SDS011;2530;47.990;7.866;2022-10-16T05:25:13;3.55;;;1.60;;
5022;SDS011;2530;47.990;7.866;2022-10-16T05:27:39;3.00;;;1.50;;
5022;SDS011;2530;47.990;7.866;2022-10-16T05:30:05;4.10;;;1.40;;
5022;SDS011;2530;47.990;7.866;2022-10-16T05:32:31;3.50;;;1.50;;
5022;SDS011;2530;47.990;7.866;2022-10-16T05:34:56;2.20;;;1.60;;
5022;SDS011;2530;47.990;7.866;2022-10-16T05:37:24;4.40;;;1.73;;
5022;SDS011;2530;47.990;7.866;2022-10-16T05:39:49;3.47;;;1.60;;
5022;SDS011;2530;47.990;7.866;2022-10-16T05:42:15;1.77;;;1.67;;
5022;SDS011;2530;47.990;7.866;2022-10-16T05:44:40;2.43;;;1.70;;
5022;SDS011;2530;47.990;7.866;2022-10-16T05:47:06;2.60;;;1.50;;
5022;SDS011;2530;47.990;7.866;2022-10-16T05:49:31;3.20;;;1.40;;
5022;SDS011;2530;47.990;7.866;2022-10-16T05:51:57;3.03;;;1.80;;
5022;SDS011;2530;47.990;7.866;2022-10-16T05:54:22;2.90;;;1.70;;
5022;SDS011;2530;47.990;7.866;2022-10-16T05:56:48;3.53;;;1.10;;
5022;SDS011;2530;47.990;7.866;2022-10-16T05:59:13;6.20;;;2.10;;
5022;SDS011;2530;47.990;7.866;2022-10-16T06:01:39;3.95;;;1.58;;
5022;SDS011;2530;47.990;7.866;2022-10-16T06:04:05;2.70;;;1.35;;
5022;SDS011;2530;47.990;7.866;2022-10-16T06:06:30;5.00;;;1.63;;
5022;SDS011;2530;47.990;7.866;2022-10-16T06:08:56;2.50;;;1.50;;
5022;SDS011;2530;47.990;7.866;2022-10-16T06:11:26;4.40;;;1.70;;
5022;SDS011;2530;47.990;7.866;2022-10-16T06:13:55;4.90;;;1.50;;
5022;SDS011;2530;47.990;7.866;2022-10-16T06:16:22;2.72;;;1.67;;
5022;SDS011;2530;47.990;7.866;2022-10-16T06:18:50;2.47;;;1.23;;
5022;SDS011;2530;47.990;7.866;2022-10-16T06:21:18;5.07;;;1.67;;
5022;SDS011;2530;47.990;7.866;2022-10-16T06:23:49;1.60;;;1.50;;
5022;SDS011;2530;47.990;7.866;2022-10-16T06:26:17;1.70;;;1.60;;
5022;SDS011;2530;47.990;7.866;2022-10-16T06:28:43;2.60;;;1.40;;
5022;SDS011;2530;47.990;7.866;2022-10-16T06:31:10;4.63;;;1.40;;
5022;SDS011;2530;47.990;7.866;2022-10-16T06:33:36;4.43;;;1.52;;
5022;SDS011;2530;47.990;7.866;2022-10-16T06:36:03;1.75;;;1.60;;
5022;SDS011;2530;47.990;7.866;2022-10-16T06:38:31;3.40;;;1.60;;
5022;SDS011;2530;47.990;7.866;2022-10-16T06:40:57;2.97;;;1.50;;
5022;SDS011;2530;47.990;7.866;2022-10-16T06:43:23;5.68;;;1.50;;
5022;SDS011;2530;47.990;7.866;2022-10-16T06:45:52;2.00;;;1.60;;
5022;SDS011;2530;47.990;7.866;2022-10-16T06:48:18;1.90;;;1.40;;
5022;SDS011;2530;47.990;7.866;2022-10-16T06:50:54;2.40;;;1.60;;
5022;SDS011;2530;47.990;7.866;2022-10-16T06:53:31;2.85;;;1.20;;
5022;SDS011;2530;47.990;7.866;2022-10-16T06:56:05;1.88;;;1.50;;
5022;SDS011;2530;47.990;7.866;2022-10-16T06:58:32;4.70;;;1.40;;
5022;SDS011;2530;47.990;7.866;2022-10-16T07:00:57;7.40;;;1.53;;
5022;SDS011;2530;47.990;7.866;2022-10-16T07:03:23;3.00;;;1.40;;
5022;SDS011;2530;47.990;7.866;2022-10-16T07:05:49;2.60;;;1.45;;
5022;SDS011;2530;47.990;7.866;2022-10-16T07:08:18;3.08;;;1.80;;
5022;SDS011;2530;47.990;7.866;2022-10-16T07:10:43;4.80;;;1.80;;
5022;SDS011;2530;47.990;7.866;2022-10-16T07:13:09;6.83;;;1.60;;
5022;SDS011;2530;47.990;7.866;2022-10-16T07:15:38;2.15;;;1.50;;
5022;SDS011;2530;47.990;7.866;2022-10-16T07:18:03;3.10;;;1.60;;
5022;SDS011;2530;47.990;7.866;2022-10-16T07:20:29;5.60;;;1.60;;
5022;SDS011;2530;47.990;7.866;2022-10-16T07:22:54;4.07;;;1.70;;
5022;SDS011;2530;47.990;7.866;2022-10-16T07:25:20;3.47;;;1.80;;
5022;SDS011;2530;47.990;7.866;2022-10-16T07:27:45;6.70;;;1.80;;
5022;SDS011;2530;47.990;7.866;2022-10-16T07:30:11;4.80;;;1.70;;
5022;SDS011;2530;47.990;7.866;2022-10-16T07:32:37;4.20;;;1.60;;
5022;SDS011;2530;47.990;7.866;2022-10-16T07:35:02;2.90;;;1.70;;
5022;SDS011;2530;47.990;7.866;2022-10-16T07:37:28;4.80;;;1.80;;
5022;SDS011;2530;47.990;7.866;2022-10-16T07:39:54;3.35;;;1.50;;
5022;SDS011;2530;47.990;7.866;2022-10-16T07:42:19;2.17;;;1.75;;
5022;SDS011;2530;47.990;7.866;2022-10-16T07:44:45;2.40;;;1.80;;
5022;SDS011;2530;47.990;7.866;2022-10-16T07:47:10;2.60;;;1.70;;
5022;SDS011;2530;47.990;7.866;2022-10-16T07:49:36;2.00;;;1.80;;
5022;SDS011;2530;47.990;7.866;2022-10-16T07:52:01;2.00;;;1.90;;
5022;SDS011;2530;47.990;7.866;2022-10-16T07:54:27;5.07;;;1.95;;
5022;SDS011;2530;47.990;7.866;2022-10-16T07:56:53;2.65;;;1.73;;
5022;SDS011;2530;47.990;7.866;2022-10-16T07:59:18;4.20;;;2.10;;
5022;SDS011;2530;47.990;7.866;2022-10-16T08:01:44;6.00;;;2.10;;
5022;SDS011;2530;47.990;7.866;2022-10-16T08:04:09;2.38;;;1.65;;
5022;SDS011;2530;47.990;7.866;2022-10-16T08:06:38;2.20;;;1.70;;
5022;SDS011;2530;47.990;7.866;2022-10-16T08:09:05;5.80;;;2.10;;
5022;SDS011;2530;47.990;7.866;2022-10-16T08:11:32;2.78;;;1.92;;
5022;SDS011;2530;47.990;7.866;2022-10-16T08:13:57;3.07;;;1.80;;
5022;SDS011;2530;47.990;7.866;2022-10-16T08:16:23;5.50;;;2.10;;
5022;SDS011;2530;47.990;7.866;2022-10-16T08:18:49;4.30;;;2.00;;
5022;SDS011;2530;47.990;7.866;2022-10-16T08:21:17;4.15;;;1.98;;
5022;SDS011;2530;47.990;7.866;2022-10-16T08:23:44;2.75;;;1.80;;
5022;SDS011;2530;47.990;7.866;2022-10-16T08:26:11;2.90;;;2.30;;
5022;SDS011;2530;47.990;7.866;2022-10-16T08:28:37;2.63;;;2.07;;
5022;SDS011;2530;47.990;7.866;2022-10-16T08:33:34;2.00;;;1.70;;
5022;SDS011;2530;47.990;7.866;2022-10-16T08:36:00;3.10;;;1.60;;
5022;SDS011;2530;47.990;7.866;2022-10-16T08:38:27;5.20;;;2.20;;
5022;SDS011;2530;47.990;7.866;2022-10-16T08:40:52;3.13;;;1.80;;
5022;SDS011;2530;47.990;7.866;2022-10-16T08:43:47;4.10;;;2.05;;
5022;SDS011;2530;47.990;7.866;2022-10-16T08:49:29;2.22;;;1.83;;
5022;SDS011;2530;47.990;7.866;2022-10-16T08:51:56;5.88;;;2.30;;
5022;SDS011;2530;47.990;7.866;2022-10-16T08:56:53;3.50;;;1.90;;
5022;SDS011;2530;47.990;7.866;2022-10-16T08:59:20;4.10;;;2.15;;
5022;SDS011;2530;47.990;7.866;2022-10-16T09:01:46;3.70;;;2.50;;
5022;SDS011;2530;47.990;7.866;2022-10-16T09:10:27;4.70;;;2.20;;
5022;SDS011;2530;47.990;7.866;2022-10-16T09:15:39;4.78;;;2.35;;
5022;SDS011;2530;47.990;7.866;2022-10-16T09:18:24;2.93;;;2.00;;
5022;SDS011;2530;47.990;7.866;2022-10-16T09:21:31;2.80;;;1.90;;
5022;SDS011;2530;47.990;7.866;2022-10-16T09:24:13;4.72;;;1.83;;
5022;SDS011;2530;47.990;7.866;2022-10-16T09:26:41;3.40;;;1.90;;
5022;SDS011;2530;47.990;7.866;2022-10-16T09:29:08;6.77;;;2.03;;
5022;SDS011;2530;47.990;7.866;2022-10-16T09:31:38;3.00;;;1.80;;
5022;SDS011;2530;47.990;7.866;2022-10-16T09:34:04;3.38;;;1.70;;
5022;SDS011;2530;47.990;7.866;2022-10-16T09:36:35;4.07;;;2.50;;
5022;SDS011;2530;47.990;7.866;2022-10-16T09:39:07;3.13;;;1.55;;
5022;SDS011;2530;47.990;7.866;2022-10-16T09:41:37;2.42;;;1.55;;
5022;SDS011;2530;47.990;7.866;2022-10-16T09:44:15;2.00;;;1.60;;
5022;SDS011;2530;47.990;7.866;2022-10-16T09:47:03;2.17;;;1.50;;
5022;SDS011;2530;47.990;7.866;2022-10-16T09:49:30;3.50;;;1.30;;
5022;SDS011;2530;47.990;7.866;2022-10-16T09:54:35;3.33;;;1.50;;
5022;SDS011;2530;47.990;7.866;2022-10-16T09:57:05;1.90;;;1.20;;
5022;SDS011;2530;47.990;7.866;2022-10-16T09:59:45;2.25;;;1.40;;
5022;SDS011;2530;47.990;7.866;2022-10-16T10:02:16;3.45;;;1.50;;
5022;SDS011;2530;47.990;7.866;2022-10-16T10:04:46;1.30;;;1.20;;
5022;SDS011;2530;47.990;7.866;2022-10-16T10:07:18;2.50;;;1.40;;
5022;SDS011;2530;47.990;7.866;2022-10-16T10:09:50;4.03;;;1.20;;
5022;SDS011;2530;47.990;7.866;2022-10-16T10:12:20;1.85;;;1.30;;
5022;SDS011;2530;47.990;7.866;2022-10-16T10:14:50;4.20;;;1.13;;
5022;SDS011;2530;47.990;7.866;2022-10-16T10:17:22;2.70;;;1.20;;
5022;SDS011;2530;47.990;7.866;2022-10-16T10:22:24;2.55;;;1.35;;
5022;SDS011;2530;47.990;7.866;2022-10-16T10:24:56;4.03;;;1.13;;
5022;SDS011;2530;47.990;7.866;2022-10-16T10:33:13;2.60;;;1.10;;
5022;SDS011;2530;47.990;7.866;2022-10-16T10:38:24;2.47;;;1.20;;
5022;SDS011;2530;47.990;7.866;2022-10-16T10:46:32;1.48;;;0.95;;
5022;SDS011;2530;47.990;7.866;2022-10-16T10:57:29;1.15;;;0.93;;
5022;SDS011;2530;47.990;7.866;2022-10-16T11:05:54;1.85;;;1.02;;
5022;SDS011;2530;47.990;7.866;2022-10-16T11:08:35;1.15;;;0.82;;
5022;SDS011;2530;47.990;7.866;2022-10-16T11:11:08;1.40;;;1.10;;
5022;SDS011;2530;47.990;7.866;2022-10-16T11:13:42;1.38;;;1.00;;
5022;SDS011;2530;47.990;7.866;2022-10-16T11:16:16;1.00;;;0.90;;
5022;SDS011;2530;47.990;7.866;2022-10-16T11:18:50;1.60;;;1.00;;
5022;SDS011;2530;47.990;7.866;2022-10-16T11:21:24;1.20;;;0.90;;
5022;SDS011;2530;47.990;7.866;2022-10-16T11:23:53;1.58;;;1.10;;
5022;SDS011;2530;47.990;7.866;2022-10-16T11:26:30;1.05;;;0.80;;
5022;SDS011;2530;47.990;7.866;2022-10-16T11:28:59;1.80;;;1.20;;
5022;SDS011;2530;47.990;7.866;2022-10-16T11:31:39;1.90;;;0.82;;
5022;SDS011;2530;47.990;7.866;2022-10-16T11:37:21;1.50;;;1.10;;
5022;SDS011;2530;47.990;7.866;2022-10-16T11:39:52;1.20;;;1.10;;
5022;SDS011;2530;47.990;7.866;2022-10-16T11:42:22;2.47;;;1.40;;
5022;SDS011;2530;47.990;7.866;2022-10-16T11:48:01;2.00;;;1.20;;
5022;SDS011;2530;47.990;7.866;2022-10-16T11:56:06;1.88;;;1.00;;
5022;SDS011;2530;47.990;7.866;2022-10-16T11:58:33;1.60;;;1.10;;
5022;SDS011;2530;47.990;7.866;2022-10-16T12:06:57;1.40;;;1.00;;
5022;SDS011;2530;47.990;7.866;2022-10-16T12:09:53;1.15;;;0.77;;
5022;SDS011;2530;47.990;7.866;2022-10-16T12:12:24;1.13;;;1.00;;
5022;SDS011;2530;47.990;7.866;2022-10-16T12:15:00;3.20;;;0.85;;
5022;SDS011;2530;47.990;7.866;2022-10-16T12:17:33;1.20;;;1.00;;
5022;SDS011;2530;47.990;7.866;2022-10-16T12:20:22;1.77;;;1.00;;
5022;SDS011;2530;47.990;7.866;2022-10-16T12:22:50;1.20;;;1.10;;
5022;SDS011;2530;47.990;7.866;2022-10-16T12:25:27;1.85;;;1.13;;
5022;SDS011;2530;47.990;7.866;2022-10-16T12:28:00;1.27;;;1.17;;
5022;SDS011;2530;47.990;7.866;2022-10-16T12:30:29;1.57;;;1.10;;
5022;SDS011;2530;47.990;7.866;2022-10-16T12:32:58;1.42;;;1.00;;
5022;SDS011;2530;47.990;7.866;2022-10-16T12:35:28;0.90;;;0.90;;
5022;SDS011;2530;47.990;7.866;2022-10-16T12:38:06;1.30;;;1.20;;
5022;SDS011;2530;47.990;7.866;2022-10-16T12:40:38;1.20;;;1.10;;
5022;SDS011;2530;47.990;7.866;2022-10-16T12:43:23;1.33;;;0.90;;
5022;SDS011;2530;47.990;7.866;2022-10-16T12:45:58;1.55;;;1.10;;
5022;SDS011;2530;47.990;7.866;2022-10-16T12:48:29;1.90;;;1.10;;
5022;SDS011;2530;47.990;7.866;2022-10-16T12:50:55;1.13;;;1.00;;
5022;SDS011;2530;47.990;7.866;2022-10-16T12:53:24;1.10;;;1.00;;
5022;SDS011;2530;47.990;7.866;2022-10-16T12:55:57;1.30;;;1.10;;
5022;SDS011;2530;47.990;7.866;2022-10-16T13:03:49;1.73;;;1.20;;
5022;SDS011;2530;47.990;7.866;2022-10-16T13:06:39;3.00;;;1.30;;
5022;SDS011;2530;47.990;7.866;2022-10-16T13:18:16;1.90;;;0.90;;
5022;SDS011;2530;47.990;7.866;2022-10-16T13:21:11;1.20;;;1.00;;
5022;SDS011;2530;47.990;7.866;2022-10-16T13:23:55;1.50;;;0.90;;
5022;SDS011;2530;47.990;7.866;2022-10-16T13:29:09;3.20;;;1.30;;
5022;SDS011;2530;47.990;7.866;2022-10-16T13:31:36;1.93;;;1.10;;
5022;SDS011;2530;47.990;7.866;2022-10-16T13:34:04;2.22;;;1.25;;
5022;SDS011;2530;47.990;7.866;2022-10-16T13:36:43;2.90;;;1.37;;
5022;SDS011;2530;47.990;7.866;2022-10-16T13:39:19;4.70;;;1.17;;
5022;SDS011;2530;47.990;7.866;2022-10-16T13:42:28;1.50;;;1.00;;
5022;SDS011;2530;47.990;7.866;2022-10-16T13:44:51;1.80;;;1.30;;
5022;SDS011;2530;47.990;7.866;2022-10-16T13:47:19;2.60;;;1.00;;
5022;SDS011;2530;47.990;7.866;2022-10-16T13:52:44;1.60;;;1.10;;
5022;SDS011;2530;47.990;7.866;2022-10-16T13:55:13;3.20;;;1.40;;
5022;SDS011;2530;47.990;7.866;2022-10-16T13:57:40;1.70;;;1.00;;
5022;SDS011;2530;47.990;7.866;2022-10-16T14:00:23;4.50;;;1.50;;
5022;SDS011;2530;47.990;7.866;2022-10-16T14:02:59;1.73;;;1.50;;
5022;SDS011;2530;47.990;7.866;2022-10-16T14:05:28;1.50;;;1.40;;
5022;SDS011;2530;47.990;7.866;2022-10-16T14:07:54;1.30;;;1.20;;
5022;SDS011;2530;47.990;7.866;2022-10-16T14:10:25;2.60;;;1.33;;
5022;SDS011;2530;47.990;7.866;2022-10-16T14:12:54;2.10;;;1.40;;
5022;SDS011;2530;47.990;7.866;2022-10-16T14:15:28;3.22;;;1.70;;
5022;SDS011;2530;47.990;7.866;2022-10-16T14:17:55;1.73;;;1.60;;
5022;SDS011;2530;47.990;7.866;2022-10-16T14:20:24;5.10;;;2.30;;
5022;SDS011;2530;47.990;7.866;2022-10-16T14:23:01;2.70;;;1.90;;
5022;SDS011;2530;47.990;7.866;2022-10-16T14:25:30;1.90;;;1.70;;
5022;SDS011;2530;47.990;7.866;2022-10-16T14:30:31;1.95;;;1.70;;
5022;SDS011;2530;47.990;7.866;2022-10-16T14:33:00;3.20;;;1.67;;
5022;SDS011;2530;47.990;7.866;2022-10-16T14:35:30;1.60;;;1.50;;
5022;SDS011;2530;47.990;7.866;2022-10-16T14:38:00;2.97;;;1.77;;
5022;SDS011;2530;47.990;7.866;2022-10-16T14:40:29;4.28;;;1.60;;
5022;SDS011;2530;47.990;7.866;2022-10-16T14:42:56;2.50;;;1.60;;
5022;SDS011;2530;47.990;7.866;2022-10-16T14:45:26;4.22;;;1.70;;
5022;SDS011;2530;47.990;7.866;2022-10-16T14:47:56;2.00;;;1.80;;
5022;SDS011;2530;47.990;7.866;2022-10-16T14:50:23;2.30;;;2.00;;
5022;SDS011;2530;47.990;7.866;2022-10-16T14:52:49;3.20;;;2.30;;
5022;SDS011;2530;47.990;7.866;2022-10-16T14:55:15;2.70;;;2.10;;
5022;SDS011;2530;47.990;7.866;2022-10-16T14:57:42;4.05;;;1.70;;
5022;SDS011;2530;47.990;7.866;2022-10-16T15:00:14;2.20;;;1.63;;
5022;SDS011;2530;47.990;7.866;2022-10-16T15:02:42;2.63;;;1.40;;
5022;SDS011;2530;47.990;7.866;2022-10-16T15:05:19;3.30;;;2.20;;
5022;SDS011;2530;47.990;7.866;2022-10-16T15:07:49;3.10;;;2.20;;
5022;SDS011;2530;47.990;7.866;2022-10-16T15:10:16;5.25;;;2.00;;
5022;SDS011;2530;47.990;7.866;2022-10-16T15:12:42;4.35;;;3.00;;
5022;SDS011;2530;47.990;7.866;2022-10-16T15:18:09;2.05;;;1.48;;
5022;SDS011;2530;47.990;7.866;2022-10-16T15:20:36;2.47;;;1.63;;
5022;SDS011;2530;47.990;7.866;2022-10-16T15:23:04;2.08;;;1.50;;
5022;SDS011;2530;47.990;7.866;2022-10-16T15:28:08;1.60;;;1.30;;
5022;SDS011;2530;47.990;7.866;2022-10-16T15:30:35;5.07;;;1.70;;
5022;SDS011;2530;47.990;7.866;2022-10-16T15:33:02;3.38;;;2.50;;
5022;SDS011;2530;47.990;7.866;2022-10-16T15:35:28;2.10;;;1.50;;
5022;SDS011;2530;47.990;7.866;2022-10-16T15:37:53;2.97;;;1.87;;
5022;SDS011;2530;47.990;7.866;2022-10-16T15:40:19;3.08;;;1.70;;
5022;SDS011;2530;47.990;7.866;2022-10-16T15:42:45;4.38;;;1.83;;
5022;SDS011;2530;47.990;7.866;2022-10-16T15:45:11;4.60;;;2.10;;
5022;SDS011;2530;47.990;7.866;2022-10-16T15:47:38;4.28;;;2.00;;
5022;SDS011;2530;47.990;7.866;2022-10-16T15:50:09;3.00;;;1.80;;
5022;SDS011;2530;47.990;7.866;2022-10-16T15:52:36;1.90;;;1.52;;
5022;SDS011;2530;47.990;7.866;2022-10-16T15:55:04;3.75;;;2.22;;
5022;SDS011;2530;47.990;7.866;2022-10-16T15:57:37;3.33;;;2.20;;
5022;SDS011;2530;47.990;7.866;2022-10-16T16:00:13;6.20;;;2.60;;
5022;SDS011;2530;47.990;7.866;2022-10-16T16:02:42;3.85;;;2.63;;
5022;SDS011;2530;47.990;7.866;2022-10-16T16:05:09;4.10;;;2.20;;
5022;SDS011;2530;47.990;7.866;2022-10-16T16:07:36;2.40;;;2.20;;
5022;SDS011;2530;47.990;7.866;2022-10-16T16:10:03;5.32;;;2.30;;
5022;SDS011;2530;47.990;7.866;2022-10-16T16:12:30;4.70;;;2.47;;
5022;SDS011;2530;47.990;7.866;2022-10-16T16:14:56;4.07;;;2.10;;
5022;SDS011;2530;47.990;7.866;2022-10-16T16:17:22;6.70;;;2.40;;
5022;SDS011;2530;47.990;7.866;2022-10-16T16:19:48;4.50;;;2.83;;
5022;SDS011;2530;47.990;7.866;2022-10-16T16:22:14;4.55;;;2.15;;
5022;SDS011;2530;47.990;7.866;2022-10-16T16:24:39;2.40;;;2.20;;
5022;SDS011;2530;47.990;7.866;2022-10-16T16:27:05;4.57;;;2.10;;
5022;SDS011;2530;47.990;7.866;2022-10-16T16:29:30;2.05;;;1.85;;
5022;SDS011;2530;47.990;7.866;2022-10-16T16:31:56;5.80;;;2.00;;
5022;SDS011;2530;47.990;7.866;2022-10-16T16:36:52;4.00;;;2.20;;
5022;SDS011;2530;47.990;7.866;2022-10-16T16:39:17;3.87;;;2.30;;
5022;SDS011;2530;47.990;7.866;2022-10-16T16:41:43;5.10;;;2.07;;
5022;SDS011;2530;47.990;7.866;2022-10-16T16:44:10;4.40;;;2.17;;
5022;SDS011;2530;47.990;7.866;2022-10-16T16:46:36;5.43;;;2.20;;
5022;SDS011;2530;47.990;7.866;2022-10-16T16:49:02;3.40;;;2.10;;
5022;SDS011;2530;47.990;7.866;2022-10-16T16:51:28;3.55;;;2.10;;
5022;SDS011;2530;47.990;7.866;2022-10-16T16:53:54;5.50;;;2.60;;
5022;SDS011;2530;47.990;7.866;2022-10-16T16:56:20;3.67;;;2.00;;
5022;SDS011;2530;47.990;7.866;2022-10-16T16:58:48;7.68;;;2.30;;
5022;SDS011;2530;47.990;7.866;2022-10-16T17:01:14;5.90;;;2.60;;
5022;SDS011;2530;47.990;7.866;2022-10-16T17:03:41;2.92;;;2.05;;
5022;SDS011;2530;47.990;7.866;2022-10-16T17:06:12;3.30;;;2.00;;
5022;SDS011;2530;47.990;7.866;2022-10-16T17:08:39;3.20;;;2.10;;
5022;SDS011;2530;47.990;7.866;2022-10-16T17:11:05;4.05;;;2.47;;
5022;SDS011;2530;47.990;7.866;2022-10-16T17:13:36;6.20;;;2.17;;
5022;SDS011;2530;47.990;7.866;2022-10-16T17:16:02;5.50;;;2.20;;
5022;SDS011;2530;47.990;7.866;2022-10-16T17:18:29;5.85;;;2.00;;
5022;SDS011;2530;47.990;7.866;2022-10-16T17:20:56;3.47;;;2.40;;
5022;SDS011;2530;47.990;7.866;2022-10-16T17:23:24;6.20;;;2.20;;